createdAt,value
2018-07-26T00:00:44.393Z,8.33
2018-07-26T00:03:12.421Z,8.50
2018-07-26T00:05:40.469Z,8.15
2018-07-26T00:08:08.514Z,8.33
2018-07-26T00:10:36.540Z,8.60
2018-07-26T00:13:04.943Z,7.67
2018-07-26T00:15:32.880Z,7.72
2018-07-26T00:18:00.912Z,8.67
2018-07-26T00:20:29.009Z,8.37
2018-07-26T00:22:57.046Z,8.03
2018-07-26T00:25:25.093Z,7.53
2018-07-26T00:27:53.137Z,8.70
2018-07-26T00:30:21.182Z,8.95
2018-07-26T00:32:49.348Z,8.67
2018-07-26T00:35:17.416Z,7.67
2018-07-26T00:37:45.463Z,7.63
2018-07-26T00:40:13.491Z,7.25
2018-07-26T00:42:41.534Z,7.67
2018-07-26T00:45:09.561Z,8.30
2018-07-26T00:47:37.592Z,8.33
2018-07-26T00:50:06.227Z,7.22
2018-07-26T00:52:34.262Z,7.10
2018-07-26T00:55:02.286Z,8.17
2018-07-26T00:57:30.322Z,8.33
2018-07-26T00:59:58.360Z,7.60
2018-07-26T01:02:26.385Z,8.20
2018-07-26T01:04:54.413Z,8.20
2018-07-26T01:07:22.444Z,8.83
2018-07-26T01:09:50.473Z,8.40
2018-07-26T01:12:18.515Z,7.92
2018-07-26T01:14:46.552Z,7.90
2018-07-26T01:17:14.600Z,9.00
2018-07-26T01:19:42.620Z,8.13
2018-07-26T01:22:10.807Z,7.73
2018-07-26T01:24:38.836Z,7.60
2018-07-26T01:27:06.865Z,8.07
2018-07-26T01:29:34.900Z,7.00
2018-07-26T01:32:02.929Z,7.23
2018-07-26T01:34:30.956Z,7.33
2018-07-26T01:36:58.985Z,7.50
2018-07-26T01:39:27.039Z,7.17
2018-07-26T01:42:01.729Z,7.03
2018-07-26T01:44:29.908Z,6.57
2018-07-26T01:46:58.231Z,7.90
2018-07-26T01:49:26.261Z,7.00
2018-07-26T01:51:54.284Z,6.90
2018-07-26T01:54:22.316Z,7.47
2018-07-26T01:56:50.356Z,8.37
2018-07-26T01:59:18.394Z,8.80
2018-07-26T02:01:46.467Z,8.37
2018-07-26T02:04:14.464Z,8.23
2018-07-26T02:06:42.499Z,7.43
2018-07-26T02:09:11.110Z,8.20
2018-07-26T02:11:39.144Z,7.37
2018-07-26T02:14:11.371Z,8.23
2018-07-26T02:16:39.396Z,8.65
2018-07-26T02:19:07.773Z,8.03
2018-07-26T02:21:35.817Z,7.87
2018-07-26T02:24:04.814Z,7.83
2018-07-26T02:26:33.008Z,8.03
2018-07-26T02:29:01.024Z,7.97
2018-07-26T02:31:29.085Z,7.90
2018-07-26T02:33:57.120Z,8.03
2018-07-26T02:36:25.156Z,8.30
2018-07-26T02:38:53.186Z,8.37
2018-07-26T02:41:21.250Z,9.40
2018-07-26T02:43:49.266Z,9.70
2018-07-26T02:46:17.465Z,9.33
2018-07-26T02:48:45.485Z,8.43
2018-07-26T02:51:13.529Z,9.00
2018-07-26T02:53:41.590Z,9.27
2018-07-26T02:56:09.620Z,9.65
2018-07-26T02:58:37.661Z,8.87
2018-07-26T03:01:05.689Z,9.13
2018-07-26T03:03:33.717Z,9.07
2018-07-26T03:06:01.727Z,8.80
2018-07-26T03:08:29.829Z,8.73
2018-07-26T03:10:57.986Z,8.80
2018-07-26T03:13:26.022Z,9.40
2018-07-26T03:15:54.045Z,9.10
2018-07-26T03:18:22.073Z,10.05
2018-07-26T03:20:50.350Z,10.67
2018-07-26T03:23:18.304Z,9.03
2018-07-26T03:25:46.332Z,9.30
2018-07-26T03:28:14.357Z,9.88
2018-07-26T03:30:42.378Z,9.33
2018-07-26T03:33:10.392Z,10.03
2018-07-26T03:35:38.407Z,9.43
2018-07-26T03:38:06.481Z,10.10
2018-07-26T03:40:34.564Z,9.60
2018-07-26T03:43:02.592Z,9.73
2018-07-26T03:45:30.616Z,10.10
2018-07-26T03:47:58.653Z,11.20
2018-07-26T03:50:26.669Z,9.60
2018-07-26T03:52:54.711Z,10.10
2018-07-26T03:55:22.741Z,13.68
2018-07-26T03:57:50.900Z,10.63
2018-07-26T04:00:18.906Z,11.20
2018-07-26T04:02:47.149Z,10.60
2018-07-26T04:05:15.189Z,10.20
2018-07-26T04:07:43.379Z,11.53
2018-07-26T04:10:11.409Z,10.47
2018-07-26T04:12:39.417Z,9.80
2018-07-26T04:15:07.476Z,9.57
2018-07-26T04:17:35.586Z,10.70
2018-07-26T04:20:03.690Z,12.63
2018-07-26T04:22:31.653Z,9.93
2018-07-26T04:24:59.699Z,11.37
2018-07-26T04:27:27.721Z,10.93
2018-07-26T04:29:55.933Z,10.63
2018-07-26T04:32:23.969Z,10.37
2018-07-26T04:34:52.006Z,11.27
2018-07-26T04:37:20.036Z,10.88
2018-07-26T04:39:48.052Z,11.60
2018-07-26T04:42:16.091Z,11.10
2018-07-26T04:44:44.342Z,11.00
2018-07-26T04:47:12.373Z,12.00
2018-07-26T04:49:40.496Z,11.53
2018-07-26T04:52:08.540Z,12.07
2018-07-26T04:54:36.641Z,12.80
2018-07-26T04:57:04.989Z,13.00
2018-07-26T04:59:33.044Z,11.67
2018-07-26T05:02:01.070Z,12.63
2018-07-26T05:04:29.085Z,13.07
2018-07-26T05:06:58.410Z,12.03
2018-07-26T05:09:26.458Z,11.10
2018-07-26T05:11:54.493Z,10.57
2018-07-26T05:14:22.535Z,12.43
2018-07-26T05:16:50.833Z,14.17
2018-07-26T05:19:18.847Z,12.37
2018-07-26T05:21:46.905Z,15.43
2018-07-26T05:24:15.026Z,15.20
2018-07-26T05:26:43.097Z,14.07
2018-07-26T05:29:11.135Z,12.25
2018-07-26T05:31:39.168Z,14.10
2018-07-26T05:34:07.196Z,14.60
2018-07-26T05:36:35.226Z,14.70
2018-07-26T05:39:03.297Z,15.80
2018-07-26T05:41:31.330Z,14.73
2018-07-26T05:43:59.382Z,13.97
2018-07-26T05:46:27.409Z,15.20
2018-07-26T05:48:55.443Z,15.40
2018-07-26T05:51:23.481Z,15.97
2018-07-26T05:53:51.681Z,15.93
2018-07-26T05:56:19.701Z,14.80
2018-07-26T05:58:47.819Z,16.27
2018-07-26T06:01:15.888Z,15.53
2018-07-26T06:03:44.205Z,17.13
2018-07-26T06:06:12.256Z,18.50
2018-07-26T06:08:40.306Z,14.77
2018-07-26T06:11:08.397Z,16.47
2018-07-26T06:13:36.463Z,18.83
2018-07-26T06:16:04.974Z,16.48
2018-07-26T06:18:33.008Z,17.30
2018-07-26T06:21:01.294Z,17.53
2018-07-26T06:23:29.349Z,17.70
2018-07-26T06:25:57.454Z,11.23
2018-07-26T06:28:25.489Z,16.77
2018-07-26T06:30:53.497Z,17.03
2018-07-26T06:33:21.551Z,17.27
2018-07-26T06:35:49.538Z,18.37
2018-07-26T06:38:17.556Z,14.97
2018-07-26T06:40:45.572Z,15.80
2018-07-26T06:43:13.625Z,16.60
2018-07-26T06:45:41.693Z,16.53
2018-07-26T06:48:09.721Z,16.43
2018-07-26T06:50:37.748Z,17.27
2018-07-26T06:53:05.936Z,17.07
2018-07-26T06:55:33.967Z,16.17
2018-07-26T06:58:01.982Z,15.83
2018-07-26T07:00:30.005Z,15.13
2018-07-26T07:02:58.013Z,15.67
2018-07-26T07:05:26.125Z,14.97
2018-07-26T07:07:54.156Z,15.23
2018-07-26T07:10:22.401Z,16.30
2018-07-26T07:12:50.421Z,14.60
2018-07-26T07:15:18.593Z,14.43
2018-07-26T07:17:46.605Z,14.60
2018-07-26T07:20:15.160Z,14.03
2018-07-26T07:22:43.341Z,16.23
2018-07-26T07:25:11.366Z,14.33
2018-07-26T07:27:39.541Z,13.53
2018-07-26T07:30:09.899Z,12.60
2018-07-26T07:32:37.930Z,13.53
2018-07-26T07:35:06.387Z,13.47
2018-07-26T07:37:34.397Z,13.07
2018-07-26T07:40:02.651Z,13.37
2018-07-26T07:42:30.713Z,14.03
2018-07-26T07:44:58.733Z,13.53
2018-07-26T07:47:26.763Z,12.17
2018-07-26T07:49:54.797Z,13.67
2018-07-26T07:52:23.605Z,12.17
2018-07-26T07:54:51.688Z,12.47
2018-07-26T07:57:19.741Z,13.03
2018-07-26T07:59:47.849Z,13.27
2018-07-26T08:02:15.845Z,13.20
2018-07-26T08:04:43.986Z,11.93
2018-07-26T08:07:12.006Z,11.40
2018-07-26T08:09:40.024Z,9.93
2018-07-26T08:12:08.040Z,10.07
2018-07-26T08:14:36.231Z,10.07
2018-07-26T08:17:04.764Z,9.57
2018-07-26T08:19:32.801Z,9.80
2018-07-26T08:22:00.832Z,10.10
2018-07-26T08:24:28.860Z,8.00
2018-07-26T08:26:56.908Z,9.17
2018-07-26T08:29:25.039Z,8.30
2018-07-26T08:31:53.028Z,6.97
2018-07-26T08:34:21.060Z,8.08
2018-07-26T08:36:49.082Z,8.50
2018-07-26T08:39:17.104Z,7.23
2018-07-26T08:41:45.119Z,7.60
2018-07-26T08:44:13.140Z,7.50
2018-07-26T08:46:41.162Z,6.37
2018-07-26T08:49:09.209Z,7.40
2018-07-26T08:51:37.347Z,6.30
2018-07-26T08:54:05.750Z,6.47
2018-07-26T08:56:33.941Z,6.73
2018-07-26T08:59:02.024Z,6.70
2018-07-26T09:01:30.037Z,6.27
2018-07-26T09:03:58.068Z,6.03
2018-07-26T09:06:26.081Z,6.77
2018-07-26T09:08:54.120Z,6.00
2018-07-26T09:11:22.189Z,6.40
2018-07-26T09:13:50.335Z,5.87
2018-07-26T09:16:18.333Z,5.57
2018-07-26T09:18:46.358Z,7.57
2018-07-26T09:21:14.389Z,6.03
2018-07-26T09:23:42.463Z,8.00
2018-07-26T09:26:10.490Z,6.23
2018-07-26T09:28:38.556Z,5.50
2018-07-26T09:31:06.750Z,5.63
2018-07-26T09:33:34.830Z,6.08
2018-07-26T09:36:02.893Z,6.50
2018-07-26T09:38:30.972Z,5.97
2018-07-26T09:40:59.042Z,5.40
2018-07-26T09:43:27.070Z,5.70
2018-07-26T09:45:55.785Z,5.23
2018-07-26T09:48:23.863Z,5.37
2018-07-26T09:50:51.883Z,5.90
2018-07-26T09:53:20.014Z,5.77
2018-07-26T09:55:48.395Z,6.63
2018-07-26T09:58:16.409Z,5.35
2018-07-26T10:00:49.736Z,5.60
2018-07-26T10:03:17.760Z,5.83
2018-07-26T10:05:45.790Z,5.23
2018-07-26T10:08:13.805Z,5.33
2018-07-26T10:10:41.821Z,4.93
2018-07-26T10:13:09.837Z,5.70
2018-07-26T10:15:37.882Z,5.47
2018-07-26T10:18:06.277Z,4.83
2018-07-26T10:20:34.292Z,4.97
2018-07-26T10:23:02.318Z,4.73
2018-07-26T10:25:30.345Z,6.10
2018-07-26T10:27:58.359Z,4.13
2018-07-26T10:30:26.555Z,4.40
2018-07-26T10:32:54.720Z,3.57
2018-07-26T10:35:22.747Z,3.83
2018-07-26T10:37:50.776Z,3.87
2018-07-26T10:40:18.817Z,5.58
2018-07-26T10:42:46.845Z,5.13
2018-07-26T10:45:14.861Z,3.70
2018-07-26T10:47:42.889Z,3.80
2018-07-26T10:50:11.456Z,3.93
2018-07-26T10:52:39.637Z,3.17
2018-07-26T10:55:08.197Z,3.27
2018-07-26T10:57:37.310Z,3.20
2018-07-26T11:00:06.525Z,3.13
2018-07-26T11:02:34.572Z,3.42
2018-07-26T11:05:02.584Z,2.93
2018-07-26T11:07:30.600Z,3.10
2018-07-26T11:09:58.624Z,4.20
2018-07-26T11:12:26.672Z,3.47
2018-07-26T11:14:59.651Z,3.43
2018-07-26T11:17:27.668Z,2.93
2018-07-26T11:19:55.688Z,3.03
2018-07-26T11:22:23.712Z,3.30
2018-07-26T11:24:55.920Z,2.93
2018-07-26T11:27:25.136Z,2.97
2018-07-26T11:29:53.305Z,3.80
2018-07-26T11:32:21.380Z,3.23
2018-07-26T11:34:49.375Z,3.10
2018-07-26T11:37:17.608Z,3.87
2018-07-26T11:39:45.644Z,2.70
2018-07-26T11:42:13.777Z,2.33
2018-07-26T11:44:41.815Z,2.57
2018-07-26T11:47:09.912Z,2.62
2018-07-26T11:49:37.944Z,2.90
2018-07-26T11:52:06.532Z,3.37
2018-07-26T11:54:34.869Z,2.60
2018-07-26T11:57:02.945Z,2.37
2018-07-26T11:59:31.172Z,3.00
2018-07-26T12:01:59.191Z,2.67
2018-07-26T12:04:27.468Z,2.93
2018-07-26T12:06:55.613Z,2.60
2018-07-26T12:09:23.699Z,2.23
2018-07-26T12:11:51.715Z,2.57
2018-07-26T12:14:19.756Z,3.33
2018-07-26T12:16:47.772Z,2.80
2018-07-26T12:19:15.795Z,2.60
2018-07-26T12:21:43.822Z,2.53
2018-07-26T12:24:12.013Z,6.73
2018-07-26T12:26:40.086Z,2.50
2018-07-26T12:29:08.492Z,3.20
2018-07-26T12:31:36.554Z,2.57
2018-07-26T12:36:58.246Z,2.50
2018-07-26T12:39:26.551Z,2.50
2018-07-26T12:41:54.566Z,2.97
2018-07-26T12:44:22.589Z,4.10
2018-07-26T12:46:50.639Z,2.77
2018-07-26T12:49:18.657Z,2.47
2018-07-26T12:51:46.920Z,3.07
2018-07-26T12:54:14.989Z,2.60
2018-07-26T12:56:43.061Z,2.87
2018-07-26T12:59:11.137Z,2.80
2018-07-26T13:01:39.215Z,2.90
2018-07-26T13:04:07.289Z,2.50
2018-07-26T13:06:35.348Z,4.90
2018-07-26T13:09:03.448Z,3.20
2018-07-26T13:11:31.473Z,3.30
2018-07-26T13:13:59.489Z,3.07
2018-07-26T13:16:27.530Z,3.47
2018-07-26T13:18:55.551Z,3.93
2018-07-26T13:21:23.556Z,3.40
2018-07-26T13:23:51.576Z,2.83
2018-07-26T13:26:19.612Z,2.20
2018-07-26T13:28:47.763Z,4.33
2018-07-26T13:31:16.096Z,3.33
2018-07-26T13:33:44.095Z,2.77
2018-07-26T13:36:12.201Z,2.83
2018-07-26T13:38:40.212Z,3.10
2018-07-26T13:41:08.258Z,3.05
2018-07-26T13:43:36.284Z,2.52
2018-07-26T13:46:04.740Z,2.60
2018-07-26T13:48:32.876Z,3.40
2018-07-26T13:51:01.293Z,5.30
2018-07-26T13:53:29.336Z,5.73
2018-07-26T13:55:57.358Z,2.92
2018-07-26T13:58:25.389Z,3.80
2018-07-26T14:00:53.401Z,4.05
2018-07-26T14:03:21.437Z,2.50
2018-07-26T14:05:49.472Z,3.10
2018-07-26T14:08:17.497Z,3.20
2018-07-26T14:10:45.559Z,2.90
2018-07-26T14:13:13.628Z,6.97
2018-07-26T14:15:41.678Z,2.90
2018-07-26T14:18:09.628Z,2.40
2018-07-26T14:20:37.703Z,2.97
2018-07-26T14:23:05.871Z,3.15
2018-07-26T14:25:33.948Z,3.33
2018-07-26T14:28:02.003Z,2.63
2018-07-26T14:30:30.183Z,2.65
2018-07-26T14:32:58.464Z,2.90
2018-07-26T14:35:26.488Z,2.83
2018-07-26T14:37:54.529Z,3.20
2018-07-26T14:40:22.569Z,2.90
2018-07-26T14:42:50.609Z,2.97
2018-07-26T14:45:18.639Z,2.67
2018-07-26T14:47:46.668Z,2.87
2018-07-26T14:50:14.684Z,3.13
2018-07-26T14:52:42.722Z,2.83
2018-07-26T14:55:10.755Z,3.13
2018-07-26T14:57:38.779Z,3.27
2018-07-26T15:00:06.933Z,3.23
2018-07-26T15:02:37.030Z,4.10
2018-07-26T15:10:50.836Z,3.47
2018-07-26T15:13:18.861Z,3.13
2018-07-26T15:15:46.872Z,3.60
2018-07-26T15:18:14.920Z,3.37
2018-07-26T15:20:42.929Z,2.93
2018-07-26T15:23:10.967Z,3.30
2018-07-26T15:25:38.993Z,3.90
2018-07-26T15:28:07.068Z,4.13
2018-07-26T15:30:35.096Z,3.30
2018-07-26T15:33:03.114Z,3.70
2018-07-26T15:35:31.236Z,4.03
2018-07-26T15:37:59.313Z,4.23
2018-07-26T15:40:27.328Z,4.20
2018-07-26T15:42:55.367Z,4.80
2018-07-26T15:45:23.628Z,3.57
2018-07-26T15:47:51.649Z,3.30
2018-07-26T15:50:19.697Z,3.23
2018-07-26T15:52:47.738Z,3.43
2018-07-26T15:55:15.813Z,3.60
2018-07-26T15:57:43.897Z,4.97
2018-07-26T16:00:12.208Z,3.95
2018-07-26T16:02:40.296Z,6.20
2018-07-26T16:05:08.665Z,3.40
2018-07-26T16:07:36.949Z,3.83
2018-07-26T16:10:05.580Z,4.17
2018-07-26T16:12:33.866Z,3.73
2018-07-26T16:15:02.881Z,4.17
2018-07-26T16:17:31.108Z,4.30
2018-07-26T16:19:59.117Z,3.53
2018-07-26T16:22:27.401Z,2.90
2018-07-26T16:24:55.381Z,3.00
2018-07-26T16:27:23.409Z,3.30
2018-07-26T16:29:51.426Z,2.87
2018-07-26T16:32:19.551Z,2.90
2018-07-26T16:34:47.580Z,3.33
2018-07-26T16:37:22.135Z,2.85
2018-07-26T16:39:50.212Z,2.90
2018-07-26T16:42:18.184Z,3.33
2018-07-26T16:44:46.451Z,2.70
2018-07-26T16:47:14.529Z,3.70
2018-07-26T16:49:42.575Z,5.03
2018-07-26T16:52:10.602Z,5.83
2018-07-26T16:54:38.653Z,4.07
2018-07-26T16:57:06.666Z,3.20
2018-07-26T16:59:34.700Z,3.07
2018-07-26T17:02:02.762Z,2.90
2018-07-26T17:04:30.810Z,2.90
2018-07-26T17:06:58.836Z,2.90
2018-07-26T17:09:26.861Z,3.03
2018-07-26T17:11:54.886Z,3.00
2018-07-26T17:14:22.944Z,2.42
2018-07-26T17:16:50.981Z,2.77
2018-07-26T17:19:19.013Z,3.00
2018-07-26T17:21:47.190Z,3.30
2018-07-26T17:24:15.244Z,3.73
2018-07-26T17:26:43.271Z,2.80
2018-07-26T17:29:11.880Z,3.00
2018-07-26T17:31:39.837Z,2.93
2018-07-26T17:34:07.897Z,4.77
2018-07-26T17:36:35.945Z,3.43
2018-07-26T17:39:07.063Z,2.90
2018-07-26T17:41:35.093Z,3.10
2018-07-26T17:44:03.123Z,4.17
2018-07-26T17:46:31.154Z,3.37
2018-07-26T17:48:59.176Z,3.70
2018-07-26T17:51:27.216Z,3.60
2018-07-26T17:53:55.236Z,3.43
2018-07-26T17:56:23.260Z,3.37
2018-07-26T17:58:51.433Z,3.10
2018-07-26T18:01:20.068Z,3.62
2018-07-26T18:03:48.081Z,3.50
2018-07-26T18:06:16.121Z,3.33
2018-07-26T18:08:44.149Z,3.20
2018-07-26T18:11:12.176Z,3.13
2018-07-26T18:13:40.215Z,3.53
2018-07-26T18:16:08.236Z,3.20
2018-07-26T18:18:36.282Z,3.07
2018-07-26T18:21:04.836Z,3.35
2018-07-26T18:23:32.872Z,2.57
2018-07-26T18:26:00.920Z,2.80
2018-07-26T18:28:28.950Z,3.77
2018-07-26T18:30:56.984Z,3.60
2018-07-26T18:33:25.029Z,4.03
2018-07-26T18:35:53.065Z,3.57
2018-07-26T18:38:21.147Z,3.20
2018-07-26T18:40:49.151Z,3.33
2018-07-26T18:43:17.177Z,3.20
2018-07-26T18:45:45.221Z,3.30
2018-07-26T18:48:13.270Z,2.90
2018-07-26T18:50:41.296Z,3.30
2018-07-26T18:53:09.324Z,2.65
2018-07-26T18:55:37.362Z,2.93
2018-07-26T18:58:05.398Z,3.40
2018-07-26T19:00:33.429Z,2.97
2018-07-26T19:03:01.473Z,3.03
2018-07-26T19:05:29.509Z,3.20
2018-07-26T19:07:57.537Z,3.20
2018-07-26T19:10:25.555Z,2.43
2018-07-26T19:12:53.601Z,4.43
2018-07-26T19:15:21.660Z,2.90
2018-07-26T19:17:49.687Z,3.20
2018-07-26T19:20:17.739Z,3.03
2018-07-26T19:22:45.764Z,2.93
2018-07-26T19:25:13.810Z,3.10
2018-07-26T19:27:41.833Z,3.30
2018-07-26T19:30:12.015Z,3.52
2018-07-26T19:32:40.061Z,4.67
2018-07-26T19:35:08.109Z,4.30
2018-07-26T19:37:36.276Z,4.10
2018-07-26T19:40:05.966Z,4.30
2018-07-26T19:42:34.296Z,4.07
2018-07-26T19:45:02.360Z,4.33
2018-07-26T19:47:30.396Z,3.47
2018-07-26T19:49:58.434Z,3.70
2018-07-26T19:52:26.636Z,3.30
2018-07-26T19:54:54.736Z,5.23
2018-07-26T19:57:22.772Z,5.13
2018-07-26T19:59:50.801Z,5.57
2018-07-26T20:02:18.999Z,5.00
2018-07-26T20:04:47.023Z,6.20
2018-07-26T20:07:15.045Z,6.45
2018-07-26T20:09:43.084Z,4.93
2018-07-26T20:12:11.113Z,4.70
2018-07-26T20:14:39.134Z,4.33
2018-07-26T20:17:07.210Z,5.37
2018-07-26T20:19:35.261Z,5.13
2018-07-26T20:22:03.302Z,5.90
2018-07-26T20:24:31.340Z,4.90
2018-07-26T20:26:59.392Z,4.80
2018-07-26T20:29:27.492Z,5.87
2018-07-26T20:31:55.569Z,5.45
2018-07-26T20:34:23.648Z,5.83
2018-07-26T20:36:51.753Z,4.53
2018-07-26T20:39:19.826Z,4.67
2018-07-26T20:41:47.865Z,5.23
2018-07-26T20:44:15.925Z,4.77
2018-07-26T20:46:43.984Z,5.03
2018-07-26T20:49:12.074Z,5.08
2018-07-26T20:51:40.125Z,5.00
2018-07-26T20:54:08.215Z,5.73
2018-07-26T20:56:36.227Z,6.00
2018-07-26T20:59:04.952Z,5.03
2018-07-26T21:01:32.996Z,4.57
2018-07-26T21:04:01.613Z,4.53
2018-07-26T21:06:29.841Z,5.33
2018-07-26T21:08:57.902Z,5.07
2018-07-26T21:11:25.957Z,5.47
2018-07-26T21:13:54.004Z,5.23
2018-07-26T21:16:22.272Z,6.47
2018-07-26T21:18:50.369Z,9.30
2018-07-26T21:21:18.440Z,9.65
2018-07-26T21:23:46.614Z,9.70
2018-07-26T21:26:14.659Z,7.60
2018-07-26T21:28:42.695Z,7.43
2018-07-26T21:31:11.034Z,6.23
2018-07-26T21:33:39.089Z,6.00
2018-07-26T21:36:07.465Z,5.33
2018-07-26T21:38:35.512Z,10.90
2018-07-26T21:41:03.581Z,15.20
2018-07-26T21:43:31.656Z,13.73
2018-07-26T21:45:59.702Z,10.70
2018-07-26T21:48:27.733Z,9.47
2018-07-26T21:50:55.767Z,7.57
2018-07-26T21:53:23.800Z,6.33
2018-07-26T21:55:51.845Z,6.17
2018-07-26T21:58:20.036Z,4.93
2018-07-26T22:00:53.433Z,5.12
2018-07-26T22:03:21.468Z,5.40
2018-07-26T22:05:49.502Z,5.00
2018-07-26T22:08:17.533Z,4.92
2018-07-26T22:10:45.584Z,5.53
2018-07-26T22:13:13.630Z,6.97
2018-07-26T22:15:41.675Z,4.60
2018-07-26T22:18:09.720Z,4.77
2018-07-26T22:20:37.741Z,4.43
2018-07-26T22:23:05.972Z,5.27
2018-07-26T22:25:34.116Z,4.50
2018-07-26T22:28:02.163Z,4.90
2018-07-26T22:30:30.233Z,4.33
2018-07-26T22:32:58.609Z,4.53
2018-07-26T22:35:26.650Z,4.73
2018-07-26T22:37:54.828Z,5.13
2018-07-26T22:40:22.889Z,5.03
2018-07-26T22:42:50.953Z,4.77
2018-07-26T22:45:18.995Z,3.70
2018-07-26T22:47:47.027Z,4.20
2018-07-26T22:50:15.068Z,4.30
2018-07-26T22:52:43.093Z,5.83
2018-07-26T22:55:11.139Z,4.22
2018-07-26T22:57:39.188Z,4.73
2018-07-26T23:00:07.638Z,3.83
2018-07-26T23:02:35.682Z,4.67
2018-07-26T23:05:03.895Z,4.43
2018-07-26T23:07:31.945Z,4.63
2018-07-26T23:09:59.985Z,4.40
2018-07-26T23:12:28.022Z,5.00
2018-07-26T23:14:56.092Z,4.83
2018-07-26T23:17:24.140Z,5.03
2018-07-26T23:19:52.180Z,4.97
2018-07-26T23:22:20.208Z,4.85
2018-07-26T23:24:48.248Z,6.47
2018-07-26T23:27:16.322Z,5.23
2018-07-26T23:29:44.378Z,5.40
2018-07-26T23:32:12.404Z,5.10
2018-07-26T23:34:40.463Z,4.47
2018-07-26T23:37:08.503Z,5.60
2018-07-26T23:39:36.520Z,5.20
2018-07-26T23:42:04.923Z,5.10
2018-07-26T23:44:32.960Z,7.27
2018-07-26T23:47:00.987Z,4.83
2018-07-26T23:49:29.036Z,5.30
2018-07-26T23:51:57.093Z,5.00
2018-07-26T23:54:25.113Z,4.92
2018-07-26T23:56:53.185Z,4.60
2018-07-26T23:59:21.260Z,5.08
